Time;durP1;ratioP1;P1;durP2;ratioP2;P2;SDS_P1;SDS_P2;PMS_P1;PMS_P2;Temp;Humidity;BMP_temperature;BMP_pressure;BME280_temperature;BME280_humidity;BME280_pressure;Samples;Min_cycle;Max_cycle;Signal;HPM_P1;HPM_P2
2023/03/18 00:02:03;;;;;;;37.63;24.37;;;;;;;3.41;59.34;95311.59;4951904;28;20243;-65
2023/03/18 00:04:29;;;;;;;39.27;24.37;;;;;;;3.57;58.63;95313.19;4969079;28;20545;-66
2023/03/18 00:06:55;;;;;;;33.97;23.37;;;;;;;3.57;58.55;95308.81;4978344;28;20232;-67
2023/03/18 00:09:21;;;;;;;33.57;22.43;;;;;;;3.42;58.53;95299.44;4965109;28;20242;-67
2023/03/18 00:11:47;;;;;;;33.43;22.10;;;;;;;3.45;58.45;95304.47;4968039;28;20224;-67
2023/03/18 00:14:12;;;;;;;30.53;20.17;;;;;;;3.38;58.64;95298.81;4969030;28;20231;-66
2023/03/18 00:16:38;;;;;;;29.17;19.37;;;;;;;3.24;58.79;95298.91;4962685;28;20200;-66
2023/03/18 00:19:04;;;;;;;26.43;18.40;;;;;;;3.29;58.44;95299.44;4946186;29;20324;-66
2023/03/18 00:21:30;;;;;;;23.97;18.50;;;;;;;3.45;58.09;95301.88;4948381;28;20218;-66
2023/03/18 00:23:57;;;;;;;25.27;18.70;;;;;;;3.46;58.07;95291.34;4940917;28;20232;-67
2023/03/18 00:26:25;;;;;;;21.60;17.70;;;;;;;3.36;57.96;95285.09;4975731;28;20224;-66
2023/03/18 00:28:53;;;;;;;32.60;19.20;;;;;;;3.18;59.04;95291.47;4976909;28;20208;-67
2023/03/18 00:31:19;;;;;;;25.67;19.33;;;;;;;3.07;59.19;95289.59;4965763;28;20215;-67
2023/03/18 00:33:45;;;;;;;27.37;19.50;;;;;;;3.29;58.90;95286.44;4969404;28;20224;-67
2023/03/18 00:36:12;;;;;;;25.67;20.17;;;;;;;3.26;58.92;95289.22;4967732;28;20240;-67
2023/03/18 00:38:42;;;;;;;25.87;20.73;;;;;;;3.12;59.47;95279.72;4959737;28;20221;-68
2023/03/18 00:41:14;;;;;;;29.73;20.90;;;;;;;3.35;58.57;95273.03;4992425;28;20277;-68
2023/03/18 00:43:45;;;;;;;28.33;20.97;;;;;;;3.35;58.46;95267.00;4968353;28;20189;-64
2023/03/18 00:46:32;;;;;;;27.23;20.20;;;;;;;3.41;58.26;95266.59;4975119;28;20202;-65
2023/03/18 00:49:00;;;;;;;29.00;21.57;;;;;;;3.38;58.38;95265.03;4960177;28;20232;-64
2023/03/18 00:51:36;;;;;;;26.13;20.93;;;;;;;3.35;58.13;95254.84;4960310;28;20240;-64
2023/03/18 00:54:06;;;;;;;25.93;21.30;;;;;;;3.24;58.89;95255.56;4991494;28;20267;-64
2023/03/18 00:56:32;;;;;;;25.00;20.50;;;;;;;3.18;59.45;95255.09;4963899;28;20220;-64
2023/03/18 00:58:59;;;;;;;27.20;21.10;;;;;;;3.12;59.39;95252.91;4967600;28;20231;-67
2023/03/18 01:01:25;;;;;;;28.40;22.03;;;;;;;3.08;59.92;95253.13;4966441;28;20191;-64
2023/03/18 01:03:50;;;;;;;28.17;21.13;;;;;;;3.21;59.81;95247.97;4968466;28;20216;-67
2023/03/18 01:06:23;;;;;;;27.93;20.97;;;;;;;3.06;59.97;95251.56;4966114;28;20224;-66
2023/03/18 01:08:50;;;;;;;25.23;20.83;;;;;;;2.94;60.23;95248.00;4963515;28;20322;-67
2023/03/18 01:11:16;;;;;;;25.43;19.87;;;;;;;2.93;60.23;95248.91;4968290;28;20271;-67
2023/03/18 01:13:43;;;;;;;27.10;21.17;;;;;;;2.92;60.30;95249.88;4963241;28;20284;-67
2023/03/18 01:16:09;;;;;;;25.53;20.00;;;;;;;2.97;60.01;95237.41;4966110;28;20188;-64
2023/03/18 01:18:35;;;;;;;24.13;19.83;;;;;;;2.93;60.18;95241.13;4966540;28;20283;-67
2023/03/18 01:21:01;;;;;;;22.03;19.37;;;;;;;2.99;59.84;95237.28;4967816;28;20223;-67
2023/03/18 01:23:29;;;;;;;25.17;19.90;;;;;;;2.89;59.86;95239.69;4968432;28;20224;-66
2023/03/18 01:25:54;;;;;;;26.93;19.13;;;;;;;2.92;59.84;95236.88;4996443;28;20255;-64
2023/03/18 01:28:21;;;;;;;22.83;18.53;;;;;;;2.94;59.78;95234.16;4967269;28;20659;-64
2023/03/18 01:30:47;;;;;;;24.80;19.27;;;;;;;3.01;59.67;95231.06;4969050;28;20224;-67
2023/03/18 01:33:14;;;;;;;22.87;18.83;;;;;;;3.13;59.00;95224.25;4967564;28;20220;-67
2023/03/18 01:35:40;;;;;;;23.57;19.43;;;;;;;3.08;59.28;95228.91;4960193;28;20251;-64
2023/03/18 01:38:06;;;;;;;24.97;19.67;;;;;;;3.00;59.76;95226.81;4966196;28;20303;-64
2023/03/18 01:40:35;;;;;;;25.00;19.13;;;;;;;2.89;59.75;95224.09;4967747;28;20193;-64
2023/03/18 01:43:15;;;;;;;24.20;18.97;;;;;;;2.87;59.91;95231.97;4963240;28;20272;-64
2023/03/18 01:45:48;;;;;;;26.57;19.50;;;;;;;2.80;60.19;95229.88;4994099;28;20217;-64
2023/03/18 01:48:17;;;;;;;24.90;18.70;;;;;;;2.89;60.11;95231.88;4959401;28;20550;-67
2023/03/18 01:50:46;;;;;;;23.93;19.93;;;;;;;3.03;59.71;95230.97;4964131;28;20233;-67
2023/03/18 01:53:14;;;;;;;28.07;20.17;;;;;;;2.91;59.64;95222.22;4967904;28;20227;-64
2023/03/18 01:55:40;;;;;;;29.60;20.10;;;;;;;2.56;60.20;95230.50;4981280;28;20207;-65
2023/03/18 01:58:12;;;;;;;28.37;20.73;;;;;;;2.64;59.88;95225.66;4970954;28;20195;-64
2023/03/18 02:00:43;;;;;;;23.93;19.90;;;;;;;2.64;59.94;95222.25;4971183;28;20212;-64
2023/03/18 02:03:09;;;;;;;28.60;20.27;;;;;;;2.53;60.45;95217.72;4970321;28;20216;-63
2023/03/18 02:05:36;;;;;;;24.90;20.07;;;;;;;2.40;60.85;95220.28;4971856;28;20243;-64
2023/03/18 02:08:01;;;;;;;27.97;21.33;;;;;;;2.38;61.21;95206.59;4974173;28;20222;-64
2023/03/18 02:10:29;;;;;;;28.20;20.77;;;;;;;2.49;60.37;95211.09;4976208;28;20212;-64
2023/03/18 02:12:59;;;;;;;22.87;18.87;;;;;;;2.48;60.79;95213.78;4964315;28;20252;-64
2023/03/18 02:15:26;;;;;;;24.63;19.97;;;;;;;2.58;60.33;95210.50;4970353;28;20216;-64
2023/03/18 02:18:04;;;;;;;31.57;20.77;;;;;;;2.71;59.63;95209.72;4967570;28;20247;-64
2023/03/18 02:20:44;;;;;;;23.93;20.23;;;;;;;2.80;59.78;95209.91;4970857;28;20216;-63
2023/03/18 02:23:30;;;;;;;27.23;20.90;;;;;;;2.73;59.68;95211.28;4966995;28;20315;-63
2023/03/18 02:26:37;;;;;;;25.83;20.17;;;;;;;2.65;59.89;95214.38;4995845;28;20216;-63
2023/03/18 02:29:05;;;;;;;26.07;19.90;;;;;;;2.62;60.15;95216.34;4995667;28;20227;-63
2023/03/18 02:31:32;;;;;;;29.40;21.43;;;;;;;2.69;59.85;95221.94;4955777;28;20263;-63
2023/03/18 02:33:58;;;;;;;25.37;19.67;;;;;;;2.63;59.87;95218.00;4984312;28;20219;-67
2023/03/18 02:36:27;;;;;;;28.27;20.77;;;;;;;2.53;60.06;95217.72;4966187;28;20224;-69
2023/03/18 02:38:53;;;;;;;26.97;19.67;;;;;;;2.45;60.26;95211.38;4968771;28;20232;-67
2023/03/18 02:41:22;;;;;;;26.30;18.97;;;;;;;2.47;60.52;95210.34;4972686;28;20250;-67
2023/03/18 02:43:49;;;;;;;27.77;20.03;;;;;;;2.45;60.37;95213.97;4971114;28;20192;-64
2023/03/18 02:46:38;;;;;;;26.47;19.93;;;;;;;2.40;60.98;95219.44;4972324;28;20267;-64
2023/03/18 02:49:06;;;;;;;24.17;20.00;;;;;;;2.17;61.47;95203.56;4968943;28;20305;-64
2023/03/18 02:51:32;;;;;;;22.73;18.07;;;;;;;2.30;61.20;95213.16;4973274;28;20301;-64
2023/03/18 02:54:03;;;;;;;25.33;19.40;;;;;;;2.47;61.07;95212.13;4971535;28;20228;-64
2023/03/18 02:56:28;;;;;;;27.70;19.93;;;;;;;2.50;60.39;95206.72;4969065;28;20307;-63
2023/03/18 02:58:54;;;;;;;25.97;19.13;;;;;;;2.47;60.22;95207.75;4972395;28;20298;-66
2023/03/18 03:01:21;;;;;;;22.77;19.03;;;;;;;2.34;60.29;95210.28;4996057;28;20192;-65
2023/03/18 03:03:46;;;;;;;23.90;17.77;;;;;;;2.36;60.64;95208.44;4970901;28;20219;-66
2023/03/18 03:06:12;;;;;;;20.87;17.90;;;;;;;2.17;60.70;95203.56;4954438;28;20228;-64
2023/03/18 03:08:39;;;;;;;23.30;18.40;;;;;;;2.21;61.14;95206.81;4957010;28;20231;-64
2023/03/18 03:11:04;;;;;;;19.03;17.03;;;;;;;2.33;60.62;95207.81;4965566;28;20259;-64
2023/03/18 03:13:30;;;;;;;22.23;17.37;;;;;;;2.32;60.49;95219.09;4972592;28;20219;-67
2023/03/18 03:15:55;;;;;;;20.20;16.97;;;;;;;2.35;60.33;95218.91;4970831;28;20216;-65
2023/03/18 03:18:21;;;;;;;20.07;15.77;;;;;;;2.11;60.78;95209.16;4973017;28;20235;-65
2023/03/18 03:20:48;;;;;;;22.40;16.50;;;;;;;2.20;60.41;95215.53;4966200;28;20278;-64
2023/03/18 03:23:15;;;;;;;21.70;16.43;;;;;;;2.27;60.43;95210.75;4971027;28;20228;-64
2023/03/18 03:25:43;;;;;;;21.43;17.30;;;;;;;2.25;60.63;95216.06;4969522;28;20204;-64
2023/03/18 03:28:11;;;;;;;19.97;15.70;;;;;;;2.16;60.07;95220.06;4983185;28;20192;-64
2023/03/18 03:30:37;;;;;;;18.13;14.53;;;;;;;2.14;60.43;95227.13;4965304;28;20386;-64
2023/03/18 03:33:03;;;;;;;18.43;14.17;;;;;;;2.18;59.99;95223.38;4969813;28;20237;-68
2023/03/18 03:35:29;;;;;;;16.37;13.07;;;;;;;2.24;59.53;95222.16;4966118;28;20236;-64
2023/03/18 03:37:55;;;;;;;13.47;11.67;;;;;;;2.17;59.27;95219.16;4968801;28;20223;-64
2023/03/18 03:40:21;;;;;;;18.40;13.80;;;;;;;2.11;59.22;95226.47;4968828;28;20196;-65
2023/03/18 03:42:47;;;;;;;18.50;11.93;;;;;;;2.22;58.81;95229.25;4970575;28;20223;-65
2023/03/18 03:45:14;;;;;;;16.13;11.33;;;;;;;2.19;58.44;95234.59;4968937;28;20299;-65
2023/03/18 03:47:41;;;;;;;17.90;10.77;;;;;;;2.20;58.85;95226.72;4967069;28;20225;-67
2023/03/18 03:50:07;;;;;;;14.10;10.40;;;;;;;2.25;58.56;95220.44;4966924;28;20311;-68
2023/03/18 03:52:33;;;;;;;13.03;9.93;;;;;;;2.15;58.25;95226.19;4972049;28;20199;-67
2023/03/18 03:54:59;;;;;;;12.97;10.80;;;;;;;2.01;58.79;95230.56;4999300;28;20233;-65
2023/03/18 03:57:25;;;;;;;15.87;10.83;;;;;;;2.04;58.92;95236.41;4968922;28;20220;-65
2023/03/18 03:59:52;;;;;;;18.33;13.87;;;;;;;2.06;59.32;95238.88;4970602;28;20222;-65
2023/03/18 04:02:18;;;;;;;18.73;14.70;;;;;;;2.01;59.28;95236.59;4970774;28;20239;-65
2023/03/18 04:04:44;;;;;;;12.93;10.73;;;;;;;1.97;59.10;95232.50;4968890;28;20192;-65
2023/03/18 04:07:10;;;;;;;16.73;14.40;;;;;;;1.85;59.60;95238.47;4974174;28;20291;-64
2023/03/18 04:09:36;;;;;;;19.97;15.83;;;;;;;1.62;60.68;95235.47;4996335;28;20279;-64
2023/03/18 04:12:03;;;;;;;20.53;17.17;;;;;;;1.63;60.82;95244.09;4970237;28;20687;-64
2023/03/18 04:14:28;;;;;;;19.10;15.80;;;;;;;1.56;61.11;95245.41;4965427;28;20243;-64
2023/03/18 04:16:56;;;;;;;18.33;14.73;;;;;;;1.56;61.05;95251.41;4974536;28;20267;-63
2023/03/18 04:19:23;;;;;;;18.77;14.90;;;;;;;1.68;60.46;95249.81;4991873;28;20296;-64
2023/03/18 04:21:50;;;;;;;21.10;14.53;;;;;;;1.79;60.10;95262.16;4970923;28;20324;-64
2023/03/18 04:24:16;;;;;;;17.03;14.10;;;;;;;1.82;59.92;95262.81;4994594;28;20671;-64
2023/03/18 04:26:42;;;;;;;18.67;13.33;;;;;;;1.71;60.11;95270.38;4970020;28;20244;-65
2023/03/18 04:29:07;;;;;;;18.70;12.43;;;;;;;1.83;59.86;95268.81;4967875;28;20228;-65
2023/03/18 04:31:33;;;;;;;19.60;10.83;;;;;;;1.83;59.33;95271.41;4967965;28;20255;-65
2023/03/18 04:33:59;;;;;;;11.60;9.57;;;;;;;1.70;59.54;95269.56;4967835;28;20255;-65
2023/03/18 04:36:25;;;;;;;15.10;10.00;;;;;;;1.64;59.88;95269.94;4969419;28;20231;-66
2023/03/18 04:38:50;;;;;;;11.10;9.13;;;;;;;1.63;59.92;95277.78;4970849;28;20223;-64
2023/03/18 04:41:16;;;;;;;11.70;8.93;;;;;;;1.75;59.49;95269.28;4993917;28;20231;-64
2023/03/18 04:43:43;;;;;;;10.10;8.53;;;;;;;1.83;58.71;95279.19;4995552;28;20219;-63
2023/03/18 04:46:10;;;;;;;11.97;8.83;;;;;;;1.87;58.67;95289.31;4967668;28;20193;-67
2023/03/18 04:48:37;;;;;;;12.47;9.20;;;;;;;1.82;58.62;95286.16;4998006;28;20251;-67
2023/03/18 04:51:02;;;;;;;13.17;10.00;;;;;;;1.87;58.18;95291.91;4969240;28;20299;-64
2023/03/18 04:53:28;;;;;;;11.37;9.37;;;;;;;1.91;57.88;95293.34;4968592;28;20220;-64
2023/03/18 04:55:54;;;;;;;11.03;8.97;;;;;;;1.79;57.69;95288.06;4967564;28;20208;-64
2023/03/18 04:58:19;;;;;;;12.17;9.53;;;;;;;1.85;57.57;95287.72;4995850;28;20200;-64
2023/03/18 05:00:45;;;;;;;12.77;9.53;;;;;;;1.89;57.20;95294.38;4964256;28;20291;-64
2023/03/18 05:03:11;;;;;;;11.60;9.40;;;;;;;1.91;56.94;95295.94;4964048;28;20266;-64
2023/03/18 05:05:36;;;;;;;11.87;8.53;;;;;;;1.90;56.67;95290.88;4965731;28;20251;-64
2023/03/18 05:08:01;;;;;;;10.83;8.80;;;;;;;1.85;56.80;95287.72;4968692;28;20232;-64
2023/03/18 05:10:27;;;;;;;10.33;8.60;;;;;;;1.89;57.07;95290.00;4966733;28;20282;-64
2023/03/18 05:12:53;;;;;;;9.17;8.10;;;;;;;1.82;57.32;95287.88;4972194;28;20212;-65
2023/03/18 05:15:19;;;;;;;10.83;8.73;;;;;;;1.83;57.47;95289.56;4967806;28;20219;-65
2023/03/18 05:17:44;;;;;;;9.57;8.50;;;;;;;1.84;57.05;95276.50;4975317;28;20223;-66
2023/03/18 05:20:12;;;;;;;10.50;8.23;;;;;;;1.85;57.72;95280.78;4994922;28;20224;-66
2023/03/18 05:22:38;;;;;;;8.80;7.50;;;;;;;1.93;57.59;95283.72;4969069;28;20196;-65
2023/03/18 05:25:05;;;;;;;10.63;7.73;;;;;;;1.98;56.95;95275.69;4962594;28;20216;-67
2023/03/18 05:27:31;;;;;;;9.33;7.23;;;;;;;2.03;56.89;95273.63;4968379;28;20223;-67
2023/03/18 05:29:56;;;;;;;7.80;7.00;;;;;;;2.04;56.73;95277.91;4971788;28;20296;-67
2023/03/18 05:32:22;;;;;;;9.40;7.27;;;;;;;2.11;56.83;95273.16;4972463;28;20219;-66
2023/03/18 05:34:47;;;;;;;9.87;7.13;;;;;;;2.21;56.50;95275.09;4999965;28;20199;-66
2023/03/18 05:37:14;;;;;;;12.70;8.27;;;;;;;2.35;56.46;95276.84;4974247;28;20196;-67
2023/03/18 05:39:40;;;;;;;10.30;8.23;;;;;;;2.33;56.50;95276.09;4973985;28;20220;-67
2023/03/18 05:42:06;;;;;;;13.67;9.60;;;;;;;2.39;56.10;95269.69;4970434;28;20224;-67
2023/03/18 05:44:32;;;;;;;10.37;8.37;;;;;;;2.40;56.30;95277.38;4971234;28;20243;-66
2023/03/18 05:46:58;;;;;;;9.90;8.70;;;;;;;2.47;56.00;95270.03;4972768;28;25091;-66
2023/03/18 05:49:26;;;;;;;9.83;8.37;;;;;;;2.40;55.95;95273.94;5003636;28;20236;-66
2023/03/18 05:51:54;;;;;;;9.13;8.10;;;;;;;2.53;55.63;95282.63;4972335;28;20259;-67
2023/03/18 05:54:20;;;;;;;9.70;8.30;;;;;;;2.55;55.56;95280.78;4968945;28;20252;-67
2023/03/18 05:56:46;;;;;;;10.47;8.23;;;;;;;2.64;55.95;95279.34;4970375;28;20284;-67
2023/03/18 05:59:12;;;;;;;11.13;9.10;;;;;;;2.50;56.98;95284.59;4972135;28;20225;-66
2023/03/18 06:01:38;;;;;;;11.60;8.80;;;;;;;2.64;57.42;95295.75;5001013;28;20283;-67
2023/03/18 06:04:07;;;;;;;10.70;8.50;;;;;;;2.71;57.06;95292.78;4973001;28;20196;-67
2023/03/18 06:06:35;;;;;;;11.07;8.60;;;;;;;2.82;56.99;95296.38;5003157;28;20228;-68
2023/03/18 06:09:01;;;;;;;11.80;8.30;;;;;;;2.97;56.33;95289.38;4970981;28;20235;-67
2023/03/18 06:11:28;;;;;;;10.43;9.37;;;;;;;3.09;56.74;95298.94;4971219;28;20228;-67
2023/03/18 06:13:54;;;;;;;16.43;11.10;;;;;;;3.07;56.87;95295.63;4970643;28;20201;-67
2023/03/18 06:16:19;;;;;;;12.10;10.87;;;;;;;3.13;56.58;95291.81;4971729;28;20258;-66
2023/03/18 06:18:45;;;;;;;13.67;10.73;;;;;;;3.23;56.36;95300.63;4966771;28;20316;-62
2023/03/18 06:21:10;;;;;;;11.27;10.07;;;;;;;3.25;55.35;95301.38;4971363;28;20272;-63
2023/03/18 06:23:36;;;;;;;12.57;10.47;;;;;;;3.17;55.50;95300.22;4969152;28;20224;-63
2023/03/18 06:26:03;;;;;;;14.33;11.43;;;;;;;3.17;55.68;95295.84;4966746;28;20236;-63
2023/03/18 06:28:28;;;;;;;22.47;14.60;;;;;;;3.19;55.84;95298.38;4962287;28;20283;-63
2023/03/18 06:30:58;;;;;;;18.17;14.40;;;;;;;3.30;55.97;95295.88;4966008;28;20358;-62
2023/03/18 06:33:24;;;;;;;16.70;14.40;;;;;;;3.39;55.36;95291.84;4969548;28;20224;-63
2023/03/18 06:35:51;;;;;;;18.13;13.97;;;;;;;3.39;54.99;95284.88;4972138;28;20722;-63
2023/03/18 06:38:16;;;;;;;13.37;11.93;;;;;;;3.35;55.07;95285.19;4963371;28;20228;-63
2023/03/18 06:40:43;;;;;;;13.17;11.43;;;;;;;3.33;54.96;95277.50;4967907;28;20190;-63
2023/03/18 06:43:09;;;;;;;14.47;11.33;;;;;;;3.37;54.37;95271.16;4967200;28;20247;-66
2023/03/18 06:45:37;;;;;;;13.60;10.73;;;;;;;2.82;56.30;95273.00;4968946;28;20240;-62
2023/03/18 06:48:03;;;;;;;12.70;10.63;;;;;;;3.24;55.58;95267.72;4966906;28;20275;-63
2023/03/18 06:50:30;;;;;;;13.10;10.03;;;;;;;3.42;54.69;95274.31;4962829;28;20236;-63
2023/03/18 06:52:56;;;;;;;10.30;8.37;;;;;;;3.64;54.50;95278.06;4980458;28;20204;-62
2023/03/18 06:55:22;;;;;;;9.47;8.03;;;;;;;3.71;53.59;95276.69;4965253;28;20220;-64
2023/03/18 06:57:48;;;;;;;10.17;8.13;;;;;;;3.85;53.92;95276.59;4964096;28;20307;-64
2023/03/18 07:00:14;;;;;;;11.20;9.07;;;;;;;3.94;53.37;95275.13;4966108;28;20228;-60
2023/03/18 07:02:40;;;;;;;12.27;9.83;;;;;;;4.07;53.00;95269.94;4999722;28;20232;-63
2023/03/18 07:05:07;;;;;;;9.87;8.87;;;;;;;4.13;52.93;95264.28;4971225;28;20224;-61
2023/03/18 07:07:32;;;;;;;14.63;10.90;;;;;;;4.19;53.22;95272.50;4998490;28;20196;-62
2023/03/18 07:09:59;;;;;;;9.60;8.60;;;;;;;4.24;52.53;95263.53;4966826;28;20232;-62
2023/03/18 07:12:25;;;;;;;9.27;8.00;;;;;;;4.26;52.42;95272.09;4964827;28;20235;-62
2023/03/18 07:14:52;;;;;;;10.83;8.37;;;;;;;4.39;52.10;95273.72;4964655;28;20220;-62
2023/03/18 07:17:18;;;;;;;10.33;8.47;;;;;;;4.43;51.98;95263.91;4992673;28;20228;-63
2023/03/18 07:19:44;;;;;;;12.43;9.87;;;;;;;4.49;52.07;95266.09;4956989;28;20203;-64
2023/03/18 07:22:10;;;;;;;12.90;10.47;;;;;;;4.62;51.95;95259.09;4999313;28;20287;-62
2023/03/18 07:24:36;;;;;;;16.83;11.97;;;;;;;4.75;51.84;95261.63;4957051;28;20221;-62
2023/03/18 07:27:03;;;;;;;17.57;13.53;;;;;;;4.55;53.29;95264.84;4960000;28;20256;-64
2023/03/18 07:29:28;;;;;;;18.53;15.50;;;;;;;4.52;54.34;95259.84;4967228;28;20224;-63
2023/03/18 07:31:54;;;;;;;23.27;18.83;;;;;;;4.76;53.97;95267.69;4977666;28;20204;-62
2023/03/18 07:34:20;;;;;;;25.47;18.83;;;;;;;4.75;54.08;95264.22;4965740;28;20288;-64
2023/03/18 07:36:45;;;;;;;26.37;19.63;;;;;;;4.84;54.13;95279.19;4976389;28;20224;-66
2023/03/18 07:39:11;;;;;;;25.47;20.33;;;;;;;4.66;54.79;95277.91;4968257;28;20307;-65
2023/03/18 07:41:36;;;;;;;27.47;21.77;;;;;;;4.74;54.25;95275.59;4980183;28;20233;-65
2023/03/18 07:44:02;;;;;;;28.93;21.27;;;;;;;4.81;54.23;95283.78;4966981;28;20236;-65
2023/03/18 07:46:28;;;;;;;27.47;22.20;;;;;;;4.86;54.08;95272.13;4970627;28;20202;-65
2023/03/18 07:48:54;;;;;;;30.10;22.73;;;;;;;4.70;54.35;95276.75;4968954;28;20239;-65
2023/03/18 07:51:19;;;;;;;25.07;21.23;;;;;;;4.91;53.92;95273.53;4965806;28;20239;-65
2023/03/18 07:53:44;;;;;;;26.07;23.17;;;;;;;4.66;54.70;95277.09;4967714;28;20236;-65
2023/03/18 07:56:10;;;;;;;30.30;23.43;;;;;;;4.53;54.88;95277.13;4972402;28;20227;-65
2023/03/18 07:58:37;;;;;;;28.43;22.50;;;;;;;4.35;55.37;95276.63;4968454;28;20207;-65
2023/03/18 08:01:03;;;;;;;28.40;22.47;;;;;;;4.59;55.19;95274.91;4963962;28;20279;-65
2023/03/18 08:03:28;;;;;;;27.73;23.57;;;;;;;4.68;54.58;95283.00;4966792;28;20556;-66
2023/03/18 08:05:54;;;;;;;30.20;21.90;;;;;;;4.70;54.99;95276.75;4968015;28;20310;-65
2023/03/18 08:08:21;;;;;;;28.93;21.03;;;;;;;4.86;53.90;95268.66;4969422;28;20228;-65
2023/03/18 08:10:47;;;;;;;24.53;20.80;;;;;;;4.95;54.00;95268.00;4967194;28;20224;-66
2023/03/18 08:13:13;;;;;;;26.43;20.23;;;;;;;5.04;53.80;95272.53;4970406;28;20196;-65
2023/03/18 08:15:39;;;;;;;23.77;19.33;;;;;;;5.14;52.90;95262.28;4965806;28;20296;-66
2023/03/18 08:18:05;;;;;;;23.37;19.97;;;;;;;4.95;53.55;95267.19;4992452;28;20224;-66
2023/03/18 08:20:30;;;;;;;24.30;19.93;;;;;;;5.12;53.14;95268.53;4969138;28;20220;-65
2023/03/18 08:22:56;;;;;;;27.13;20.60;;;;;;;5.15;53.21;95273.53;4996340;28;20183;-66
2023/03/18 08:25:22;;;;;;;25.50;20.03;;;;;;;5.35;53.09;95279.91;4968425;28;20200;-65
2023/03/18 08:27:49;;;;;;;21.70;18.07;;;;;;;5.31;53.51;95285.31;4980299;28;20220;-65
2023/03/18 08:30:15;;;;;;;20.83;18.13;;;;;;;5.35;53.14;95274.69;4993921;28;20234;-65
2023/03/18 08:32:41;;;;;;;20.93;16.63;;;;;;;5.29;53.65;95281.16;4996300;28;20229;-65
2023/03/18 08:35:08;;;;;;;26.97;17.80;;;;;;;5.27;53.93;95281.28;4963470;28;20318;-65
2023/03/18 08:37:35;;;;;;;22.00;17.40;;;;;;;5.54;52.60;95274.97;4964712;28;20712;-71
2023/03/18 08:40:01;;;;;;;21.20;18.17;;;;;;;5.63;52.32;95268.22;4996066;28;20231;-71
2023/03/18 08:42:27;;;;;;;21.93;17.43;;;;;;;5.69;51.75;95268.63;4966452;28;20229;-70
2023/03/18 08:44:52;;;;;;;20.83;17.87;;;;;;;5.85;52.11;95272.66;4993838;28;20230;-71
2023/03/18 08:47:18;;;;;;;18.70;16.70;;;;;;;5.91;51.20;95265.19;4965348;28;20766;-70
2023/03/18 08:49:44;;;;;;;22.17;16.53;;;;;;;5.77;51.50;95273.22;4965507;28;20236;-71
2023/03/18 08:52:10;;;;;;;18.67;15.60;;;;;;;5.77;51.42;95267.19;4966915;28;20275;-70
2023/03/18 08:54:36;;;;;;;19.07;15.60;;;;;;;5.89;50.68;95280.13;4950832;28;20228;-68
2023/03/18 08:57:01;;;;;;;20.80;17.07;;;;;;;5.89;50.85;95274.09;4969714;28;20250;-68
2023/03/18 08:59:26;;;;;;;20.80;18.17;;;;;;;5.91;51.44;95273.03;4969956;28;20227;-68
2023/03/18 09:01:52;;;;;;;18.63;16.03;;;;;;;6.03;51.42;95284.31;4966434;28;20199;-68
2023/03/18 09:04:19;;;;;;;17.70;15.03;;;;;;;6.17;50.80;95283.25;4960425;28;20227;-68
2023/03/18 09:06:44;;;;;;;17.97;14.57;;;;;;;6.26;50.32;95277.34;4967611;28;20687;-68
2023/03/18 09:09:10;;;;;;;17.17;13.60;;;;;;;6.48;48.53;95279.09;4962101;28;20309;-68
2023/03/18 09:11:37;;;;;;;18.07;14.17;;;;;;;6.27;49.11;95272.94;4960718;28;20240;-68
2023/03/18 09:14:03;;;;;;;16.43;13.60;;;;;;;6.16;50.87;95274.59;4961017;28;20232;-65
2023/03/18 09:16:28;;;;;;;15.93;12.63;;;;;;;6.39;49.60;95277.22;4965211;28;20216;-68
2023/03/18 09:18:54;;;;;;;17.77;13.33;;;;;;;6.40;48.61;95279.69;4965855;28;20227;-66
2023/03/18 09:21:19;;;;;;;16.83;11.97;;;;;;;6.39;49.26;95274.63;4958724;28;20239;-65
2023/03/18 09:23:45;;;;;;;10.17;9.00;;;;;;;6.57;46.91;95274.94;4962661;28;20559;-65
2023/03/18 09:26:10;;;;;;;8.10;6.47;;;;;;;6.67;45.35;95281.09;4967253;28;20223;-65
2023/03/18 09:28:36;;;;;;;7.47;6.73;;;;;;;6.84;44.71;95278.00;4966060;28;20250;-65
2023/03/18 09:31:02;;;;;;;9.43;7.40;;;;;;;7.15;44.59;95280.75;4963809;28;20232;-65
2023/03/18 09:33:28;;;;;;;7.67;6.37;;;;;;;7.14;44.12;95276.47;4964238;28;20277;-66
2023/03/18 09:35:54;;;;;;;7.67;6.00;;;;;;;7.57;42.60;95278.19;4966483;28;20236;-65
2023/03/18 09:38:20;;;;;;;6.17;5.10;;;;;;;7.13;42.98;95274.78;4966608;28;20249;-65
2023/03/18 09:41:19;;;;;;;7.10;6.10;;;;;;;7.41;42.36;95278.63;4960298;28;20204;-65
2023/03/18 09:44:07;;;;;;;7.53;6.80;;;;;;;7.41;43.21;95273.38;4962653;28;20274;-67
2023/03/18 09:46:51;;;;;;;7.33;6.57;;;;;;;7.46;43.62;95280.88;4974539;28;20200;-67
2023/03/18 09:49:48;;;;;;;7.63;6.63;;;;;;;7.60;43.49;95274.50;4959271;28;20244;-65
2023/03/18 09:52:29;;;;;;;6.33;5.73;;;;;;;8.02;42.92;95270.06;4960702;28;20235;-66
2023/03/18 09:55:10;;;;;;;7.03;6.37;;;;;;;8.09;42.62;95260.72;4950345;28;20228;-65
2023/03/18 09:57:41;;;;;;;6.70;5.67;;;;;;;8.15;42.93;95273.31;4960013;28;20212;-64
2023/03/18 10:00:36;;;;;;;5.50;4.70;;;;;;;8.18;41.72;95266.97;4961580;28;20223;-64
2023/03/18 10:03:12;;;;;;;6.07;4.37;;;;;;;8.14;41.49;95279.47;4979691;28;20223;-65
2023/03/18 10:05:52;;;;;;;4.73;4.07;;;;;;;8.32;41.38;95271.84;4999148;28;20234;-65
2023/03/18 10:08:51;;;;;;;5.97;4.20;;;;;;;8.58;40.91;95266.16;4981244;28;20226;-64
2023/03/18 10:11:50;;;;;;;5.57;4.40;;;;;;;8.67;40.14;95272.41;5000116;28;20313;-66
2023/03/18 10:14:27;;;;;;;6.33;4.73;;;;;;;8.62;39.72;95264.94;4932175;29;20376;-64
2023/03/18 10:17:25;;;;;;;5.80;4.47;;;;;;;8.84;39.74;95269.97;4955488;28;20204;-65
2023/03/18 10:19:54;;;;;;;4.80;4.20;;;;;;;8.88;38.78;95274.97;4848920;29;20205;-65
2023/03/18 10:22:50;;;;;;;6.67;4.67;;;;;;;8.90;38.91;95270.38;4836441;29;20205;-64
2023/03/18 10:25:27;;;;;;;5.33;3.90;;;;;;;9.08;37.61;95258.28;4844390;29;20236;-67
2023/03/18 10:27:58;;;;;;;3.93;3.63;;;;;;;9.11;37.48;95262.41;4836207;29;20327;-64
2023/03/18 10:30:32;;;;;;;3.87;3.47;;;;;;;9.22;36.88;95265.75;4854218;29;20394;-64
2023/03/18 10:33:09;;;;;;;3.70;3.40;;;;;;;9.25;36.36;95256.78;4854919;29;20234;-65
2023/03/18 10:35:44;;;;;;;3.90;3.50;;;;;;;9.55;36.07;95257.59;4853741;29;20251;-64
2023/03/18 10:38:09;;;;;;;4.33;3.60;;;;;;;9.77;36.19;95251.22;4848113;29;20231;-64
2023/03/18 10:40:38;;;;;;;6.00;3.20;;;;;;;9.83;34.75;95258.53;4836846;29;20562;-65
2023/03/18 10:43:15;;;;;;;4.53;3.60;;;;;;;10.04;32.69;95259.16;4847431;29;20308;-65
2023/03/18 10:45:44;;;;;;;4.60;3.40;;;;;;;9.85;34.06;95264.47;4847936;29;20242;-67
2023/03/18 10:48:27;;;;;;;3.50;3.20;;;;;;;10.24;32.58;95256.50;4846877;29;20221;-69
2023/03/18 10:51:15;;;;;;;4.27;3.87;;;;;;;10.47;35.17;95257.78;4900890;29;20254;-67
2023/03/18 10:54:01;;;;;;;3.10;2.80;;;;;;;10.42;32.65;95244.25;4871545;29;20239;-66
2023/03/18 10:56:27;;;;;;;3.92;3.22;;;;;;;10.70;32.78;95241.66;4951246;28;20252;-68
2023/03/18 10:58:53;;;;;;;3.88;3.20;;;;;;;11.47;30.73;95241.09;4963834;28;20768;-68
2023/03/18 11:01:21;;;;;;;3.83;3.22;;;;;;;10.88;30.38;95244.28;4970802;28;20188;-68
2023/03/18 11:03:50;;;;;;;4.70;3.30;;;;;;;10.23;32.35;95249.56;4969408;28;20721;-66
2023/03/18 11:06:21;;;;;;;4.37;3.20;;;;;;;10.18;31.50;95246.53;4964967;28;20240;-69
2023/03/18 11:08:47;;;;;;;3.67;3.27;;;;;;;10.31;31.29;95236.56;4977420;28;21049;-69
2023/03/18 11:11:32;;;;;;;6.70;3.20;;;;;;;10.22;30.89;95240.84;4979788;28;20239;-63
2023/03/18 11:14:00;;;;;;;3.30;3.00;;;;;;;10.37;30.99;95244.72;4962668;28;20219;-67
2023/03/18 11:16:28;;;;;;;4.77;3.33;;;;;;;10.24;31.58;95235.47;4969035;28;20229;-66
2023/03/18 11:18:54;;;;;;;3.90;3.10;;;;;;;10.27;32.56;95248.31;4999162;28;20227;-69
2023/03/18 11:21:20;;;;;;;3.77;3.10;;;;;;;10.01;33.11;95233.19;4998955;28;20227;-69
2023/03/18 11:24:19;;;;;;;3.60;3.13;;;;;;;9.93;33.43;95238.31;4967900;28;20227;-67
2023/03/18 11:26:56;;;;;;;4.77;3.23;;;;;;;9.87;33.25;95244.97;4963337;28;20228;-64
2023/03/18 11:29:25;;;;;;;4.23;3.20;;;;;;;9.79;32.95;95241.41;4959414;28;20282;-69
2023/03/18 11:31:59;;;;;;;6.10;3.10;;;;;;;9.87;32.92;95237.09;4979090;28;20271;-70
2023/03/18 11:34:26;;;;;;;5.03;3.03;;;;;;;10.23;32.62;95236.44;4970853;28;20196;-69
2023/03/18 11:36:54;;;;;;;4.07;2.90;;;;;;;10.59;32.39;95224.25;4966717;28;20342;-69